Hauptseite
METAR-TAF:

METAR-TAF

Flughäfen :

Touggourt, Algerien

Breite: 33-07N, Länge: 006-08E, Höhe: 85 m

Beobachtung

Neuester Wetterbericht von vor 26 Minuten, um 08:00 UTC
Wind 3 kt aus Süd
Temperatur 5°C
Luftfeuchtigkeit 65%
Luftdruck 1024 hPa
Sichtweite 10 km oder mehr
keine Wolken unter 1500 m und keine Kumulonimbus oder Gewitterwolken

METAR: DAUK 240800Z 18003KT CAVOK 05/M01 Q1024

Zeit: 09:26 (08:26 UTC)

Prognose

Neuester Wetterbericht von vor 3 Stunden und 26 Minuten, um 05:00 UTC
Gültige Prognose vom 24 um 06 UTC bis 24 um 15 UTC
Wind 6 kt aus Nord/Nordwest
Sichtweite 10 km oder mehr
keine Wolken unter 1500 m und keine Kumulonimbus oder Gewitterwolken

TAF: DAUK 240500Z 2406/2415 34006KT CAVOK

Wetterbeobachtungen und Prognosen von mehr als 4000 Flughäfen (METAR und TAF Bericht).

Die verfügbaren Stationen werden durch gelbe und rote Markierungen auf der Karte dargestellt.

Führen Sie die Maus auf sie, um den Namen der Station zu sehen.

Darauf klicken, um die Beobachtung von Wetterbeobachtungen und Prognosen zu sehen.

Um die Karte zu ändern : klicken Sie auf den grünen Tasten mit einem schwarzen Kreuz Zum Vergrößern, auf den grünen Button mit einem Gedankenstrich zu verkleinern, oder auf die grünen Pfeile für benachbarte Karten.


METAR-TAF: